createdAt,value
2022-11-20T00:00:26.542Z,12.53
2022-11-20T00:04:54.549Z,15.47
2022-11-20T00:09:22.751Z,15.00
2022-11-20T00:13:31.969Z,12.50
2022-11-20T00:17:40.599Z,14.47
2022-11-20T00:21:51.547Z,11.77
2022-11-20T00:26:05.311Z,20.87
2022-11-20T00:30:15.147Z,17.07
2022-11-20T00:34:24.153Z,15.00
2022-11-20T00:38:34.563Z,12.23
2022-11-20T00:42:43.224Z,13.93
2022-11-20T00:46:52.210Z,12.30
2022-11-20T00:51:01.099Z,11.70
2022-11-20T00:55:09.671Z,9.70
2022-11-20T00:59:37.736Z,15.20
2022-11-20T01:04:06.016Z,13.90
2022-11-20T01:08:15.648Z,16.33
2022-11-20T01:12:24.176Z,10.30
2022-11-20T01:16:38.739Z,13.07
2022-11-20T01:20:47.303Z,13.60
2022-11-20T01:24:55.899Z,13.13
2022-11-20T01:29:05.765Z,14.20
2022-11-20T01:33:33.739Z,14.33
2022-11-20T01:37:42.272Z,11.00
2022-11-20T01:42:10.693Z,12.63
2022-11-20T01:46:20.420Z,10.60
2022-11-20T01:50:30.614Z,13.77
2022-11-20T01:54:42.244Z,11.33
2022-11-20T01:58:53.816Z,10.70
2022-11-20T02:03:05.480Z,12.97
2022-11-20T02:07:15.123Z,18.07
2022-11-20T02:11:24.202Z,12.40
2022-11-20T02:15:35.402Z,15.20
2022-11-20T02:19:44.085Z,19.00
2022-11-20T02:24:07.949Z,15.13
2022-11-20T02:28:17.324Z,12.97
2022-11-20T02:32:37.734Z,19.83
2022-11-20T02:36:47.589Z,16.17
2022-11-20T02:40:56.207Z,15.37
2022-11-20T02:45:05.771Z,14.13
2022-11-20T02:49:14.675Z,15.93
2022-11-20T02:53:23.243Z,15.00
2022-11-20T02:57:37.787Z,12.30
2022-11-20T03:01:46.353Z,15.70
2022-11-20T03:05:54.847Z,14.93
2022-11-20T03:10:03.470Z,15.23
2022-11-20T03:14:12.111Z,12.53
2022-11-20T03:18:20.662Z,14.40
2022-11-20T03:22:31.713Z,22.43
2022-11-20T03:26:41.348Z,18.83
2022-11-20T03:30:49.982Z,13.17
2022-11-20T03:34:58.723Z,19.13
2022-11-20T03:39:07.657Z,15.53
2022-11-20T03:43:16.191Z,16.17
2022-11-20T03:47:24.814Z,15.47
2022-11-20T03:51:35.337Z,21.00
2022-11-20T03:55:44.251Z,15.80
2022-11-20T03:59:52.850Z,13.90
2022-11-20T04:04:01.867Z,22.37
2022-11-20T04:08:10.518Z,17.13
2022-11-20T04:12:38.352Z,16.80
2022-11-20T04:16:47.025Z,11.30
2022-11-20T04:20:55.656Z,17.30
2022-11-20T04:25:04.618Z,13.50
2022-11-20T04:29:14.038Z,13.00
2022-11-20T04:33:22.666Z,20.20
2022-11-20T04:37:52.082Z,14.53
2022-11-20T04:46:46.308Z,12.83
2022-11-20T04:50:55.349Z,13.67
2022-11-20T04:55:04.280Z,16.50
2022-11-20T05:03:38.538Z,11.93
2022-11-20T05:07:45.802Z,14.73
2022-11-20T05:11:54.474Z,14.43
2022-11-20T05:16:09.224Z,16.07
2022-11-20T05:20:18.645Z,14.13
2022-11-20T05:24:27.191Z,12.80
2022-11-20T05:28:36.418Z,15.30
2022-11-20T05:32:44.968Z,14.70
2022-11-20T05:36:53.571Z,12.47
2022-11-20T05:41:10.112Z,17.03
2022-11-20T05:45:18.738Z,14.47
2022-11-20T05:49:27.343Z,15.27
2022-11-20T05:53:37.021Z,16.97
2022-11-20T05:57:45.623Z,15.00
2022-11-20T06:01:54.251Z,15.37
2022-11-20T06:06:04.636Z,10.33
2022-11-20T06:10:13.351Z,16.52
2022-11-20T06:14:21.928Z,20.03
2022-11-20T06:18:31.235Z,16.53
2022-11-20T06:22:39.854Z,13.97
2022-11-20T06:27:07.736Z,16.67
2022-11-20T06:31:18.717Z,15.67
2022-11-20T06:35:27.447Z,14.23
2022-11-20T06:39:35.974Z,17.17
2022-11-20T06:43:44.963Z,17.93
2022-11-20T06:47:53.562Z,21.30
2022-11-20T06:52:02.372Z,19.43
2022-11-20T06:56:30.273Z,14.90
2022-11-20T07:00:39.006Z,16.70
2022-11-20T07:04:47.821Z,16.53
2022-11-20T07:08:56.378Z,15.30
2022-11-20T07:13:05.087Z,16.03
2022-11-20T07:17:14.498Z,15.37
2022-11-20T07:21:23.151Z,16.33
2022-11-20T07:25:31.780Z,19.13
2022-11-20T07:29:40.615Z,17.40
2022-11-20T07:33:49.347Z,20.73
2022-11-20T07:37:58.321Z,13.23
2022-11-20T07:42:09.100Z,14.80
2022-11-20T07:46:17.790Z,15.70
2022-11-20T07:50:26.545Z,13.63
2022-11-20T07:54:35.152Z,14.50
2022-11-20T07:58:43.779Z,10.17
2022-11-20T08:02:52.407Z,18.10
2022-11-20T08:07:01.085Z,19.37
2022-11-20T08:11:27.688Z,19.67
2022-11-20T08:15:37.434Z,23.23
2022-11-20T08:19:46.071Z,17.00
2022-11-20T08:23:54.698Z,19.53
2022-11-20T08:28:20.329Z,20.53
2022-11-20T08:32:21.496Z,21.73
2022-11-20T08:36:49.462Z,16.07
2022-11-20T08:41:28.900Z,21.63
2022-11-20T08:45:37.473Z,23.60
2022-11-20T08:49:46.319Z,21.60
2022-11-20T08:53:54.929Z,20.80
2022-11-20T08:58:07.276Z,21.53
2022-11-20T09:02:16.407Z,22.33
2022-11-20T09:06:24.970Z,17.30
2022-11-20T09:10:33.820Z,21.10
2022-11-20T09:14:42.552Z,21.87
2022-11-20T09:19:07.219Z,20.43
2022-11-20T09:23:02.448Z,22.50
2022-11-20T09:27:11.005Z,19.83
2022-11-20T09:31:24.762Z,27.37
2022-11-20T09:35:33.767Z,17.73
2022-11-20T09:39:42.413Z,25.63
2022-11-20T09:44:20.015Z,24.20
2022-11-20T09:48:34.487Z,22.57
2022-11-20T09:52:52.136Z,17.40
2022-11-20T09:57:21.644Z,18.27
2022-11-20T10:01:33.652Z,19.57
2022-11-20T10:05:51.598Z,20.40
2022-11-20T10:10:00.642Z,20.70
2022-11-20T10:14:33.433Z,29.33
2022-11-20T10:19:02.801Z,22.93
2022-11-20T10:23:29.080Z,26.77
2022-11-20T10:28:10.984Z,25.63
2022-11-20T10:32:22.494Z,35.23
2022-11-20T10:36:34.195Z,24.40
2022-11-20T10:40:45.896Z,21.77
2022-11-20T10:45:06.003Z,22.77
2022-11-20T10:49:17.796Z,20.33
2022-11-20T10:53:35.335Z,24.30
2022-11-20T10:58:05.671Z,22.23
2022-11-20T11:02:22.961Z,20.03
2022-11-20T11:06:51.086Z,21.50
2022-11-20T11:11:05.477Z,24.40
2022-11-20T11:15:40.500Z,23.40
2022-11-20T11:20:04.097Z,18.80
2022-11-20T11:24:42.203Z,17.00
2022-11-20T11:28:38.027Z,25.03
2022-11-20T11:32:47.492Z,22.98
2022-11-20T11:37:08.639Z,19.00
2022-11-20T11:41:25.738Z,26.43
2022-11-20T11:45:54.909Z,22.43
2022-11-20T11:50:24.250Z,28.80
2022-11-20T11:54:58.785Z,22.03
2022-11-20T11:59:10.723Z,17.17
2022-11-20T12:03:25.389Z,22.53
2022-11-20T12:07:49.566Z,20.43
2022-11-20T12:12:19.026Z,18.10
2022-11-20T12:16:27.701Z,19.80
2022-11-20T12:21:09.024Z,25.43
2022-11-20T12:25:35.750Z,19.00
2022-11-20T12:30:04.060Z,20.47
2022-11-20T12:34:24.798Z,23.07
2022-11-20T12:38:52.836Z,17.30
2022-11-20T12:43:28.193Z,20.53
2022-11-20T12:48:15.742Z,21.13
2022-11-20T12:53:01.738Z,18.30
2022-11-20T12:57:40.575Z,17.97
2022-11-20T13:02:06.857Z,19.13
2022-11-20T13:06:19.854Z,21.77
2022-11-20T13:10:37.284Z,25.37
2022-11-20T13:14:54.719Z,20.53
2022-11-20T13:19:05.661Z,20.30
2022-11-20T13:23:15.775Z,23.27
2022-11-20T13:27:25.474Z,19.90
2022-11-20T13:31:36.883Z,20.53
2022-11-20T13:35:47.383Z,27.17
2022-11-20T13:40:17.027Z,18.93
2022-11-20T13:44:46.461Z,24.73
2022-11-20T13:48:59.657Z,28.40
2022-11-20T13:53:30.507Z,22.00
2022-11-20T13:57:57.362Z,16.33
2022-11-20T14:02:15.093Z,26.60
2022-11-20T14:06:29.878Z,24.80
2022-11-20T14:10:41.677Z,22.13
2022-11-20T14:14:53.492Z,20.13
2022-11-20T14:19:23.456Z,25.63
2022-11-20T14:23:32.145Z,24.20
2022-11-20T14:27:43.126Z,21.07
2022-11-20T14:31:54.649Z,17.70
2022-11-20T14:36:03.561Z,19.37
2022-11-20T14:40:30.724Z,27.37
2022-11-20T14:44:39.590Z,15.60
2022-11-20T14:48:59.177Z,23.10
2022-11-20T14:53:08.180Z,18.20
2022-11-20T14:57:37.595Z,24.37
2022-11-20T15:02:09.936Z,17.07
2022-11-20T15:06:21.600Z,16.90
2022-11-20T15:10:30.925Z,23.10
2022-11-20T15:14:39.560Z,22.27
2022-11-20T15:18:48.694Z,25.50
2022-11-20T15:22:57.265Z,23.40
2022-11-20T15:27:05.950Z,18.50
2022-11-20T15:31:16.526Z,28.27
2022-11-20T15:35:26.896Z,24.80
2022-11-20T15:39:35.523Z,20.17
2022-11-20T15:43:44.357Z,21.27
2022-11-20T15:48:13.875Z,23.43
2022-11-20T15:52:22.606Z,22.80
2022-11-20T15:56:34.510Z,18.20
2022-11-20T16:00:43.141Z,28.27
2022-11-20T16:04:51.773Z,25.10
2022-11-20T16:09:00.397Z,26.53
2022-11-20T16:13:35.754Z,25.77
2022-11-20T16:17:44.346Z,35.00
2022-11-20T16:22:05.476Z,23.73
2022-11-20T16:26:19.915Z,27.53
2022-11-20T16:30:28.734Z,23.07
2022-11-20T16:34:37.327Z,27.23
2022-11-20T16:38:46.573Z,23.20
2022-11-20T16:42:55.302Z,26.20
2022-11-20T16:47:03.830Z,22.93
2022-11-20T16:51:13.817Z,25.10
2022-11-20T16:55:22.400Z,17.17
2022-11-20T16:59:31.008Z,24.83
2022-11-20T17:03:41.079Z,21.63
2022-11-20T17:07:49.736Z,24.00
2022-11-20T17:11:58.449Z,25.90
2022-11-20T17:16:10.215Z,21.97
2022-11-20T17:20:18.828Z,21.90
2022-11-20T17:24:31.639Z,17.93
2022-11-20T17:28:39.202Z,18.97
2022-11-20T17:32:48.126Z,20.00
2022-11-20T17:36:56.756Z,24.77
2022-11-20T17:41:13.192Z,22.27
2022-11-20T17:45:41.148Z,19.77
2022-11-20T17:49:49.675Z,20.80
2022-11-20T17:54:01.289Z,19.00
2022-11-20T17:58:29.462Z,13.87
2022-11-20T18:02:38.096Z,20.63
2022-11-20T18:06:47.345Z,13.97
2022-11-20T18:10:55.935Z,17.20
2022-11-20T18:15:05.078Z,15.33
2022-11-20T18:19:16.162Z,17.77
2022-11-20T18:23:24.802Z,12.70
2022-11-20T18:27:33.440Z,13.05
2022-11-20T18:31:42.691Z,11.63
2022-11-20T18:35:51.521Z,15.43
2022-11-20T18:40:00.054Z,14.23
2022-11-20T18:44:29.301Z,10.63
2022-11-20T18:48:38.724Z,10.07
2022-11-20T18:52:48.060Z,9.00
2022-11-20T18:56:56.681Z,13.40
2022-11-20T19:01:29.107Z,11.53
2022-11-20T19:05:39.038Z,10.60
2022-11-20T19:09:50.178Z,12.70
2022-11-20T19:13:58.898Z,12.33
2022-11-20T19:18:07.474Z,8.33
2022-11-20T19:22:16.527Z,9.70
2022-11-20T19:26:26.313Z,10.50
2022-11-20T19:30:54.499Z,11.00
2022-11-20T19:35:03.902Z,9.87
2022-11-20T19:39:31.893Z,9.77
2022-11-20T19:43:40.410Z,20.03
2022-11-20T19:51:59.307Z,9.83
2022-11-20T19:56:08.446Z,13.53
2022-11-20T20:00:23.075Z,15.70
2022-11-20T20:04:28.673Z,11.87
2022-11-20T20:08:38.325Z,13.53
2022-11-20T20:12:46.948Z,10.90
2022-11-20T20:16:55.525Z,16.20
2022-11-20T20:21:08.922Z,16.50
2022-11-20T20:25:17.564Z,13.67
2022-11-20T20:29:26.552Z,22.60
2022-11-20T20:33:37.061Z,18.27
2022-11-20T20:37:45.611Z,19.60
2022-11-20T20:41:54.216Z,17.97
2022-11-20T20:46:02.767Z,21.27
2022-11-20T20:50:13.375Z,19.97
2022-11-20T20:54:22.048Z,15.60
2022-11-20T20:58:31.619Z,15.10
2022-11-20T21:02:41.151Z,17.53
2022-11-20T21:06:49.631Z,16.13
2022-11-20T21:11:06.619Z,25.57
2022-11-20T21:15:15.246Z,19.17
2022-11-20T21:19:23.794Z,20.00
2022-11-20T21:23:33.004Z,20.60
2022-11-20T21:27:41.625Z,21.77
2022-11-20T21:31:50.870Z,25.87
2022-11-20T21:36:00.921Z,21.15
2022-11-20T21:40:10.326Z,28.60
2022-11-20T21:44:30.934Z,23.70
2022-11-20T21:48:33.523Z,24.67
2022-11-20T21:53:01.455Z,30.23
2022-11-20T21:57:10.090Z,29.30
2022-11-20T22:01:26.938Z,30.03
2022-11-20T22:05:35.537Z,32.00
2022-11-20T22:09:45.801Z,38.33
2022-11-20T22:14:12.332Z,22.53
2022-11-20T22:18:22.471Z,25.33
2022-11-20T22:22:31.034Z,27.43
2022-11-20T22:26:40.671Z,20.50
2022-11-20T22:30:49.354Z,18.83
2022-11-20T22:34:58.051Z,23.90
2022-11-20T22:39:26.050Z,20.47
2022-11-20T22:43:35.150Z,23.63
2022-11-20T22:47:43.802Z,20.33
2022-11-20T22:51:52.431Z,25.92
2022-11-20T22:56:02.183Z,21.13
2022-11-20T23:00:11.695Z,21.90
2022-11-20T23:04:20.366Z,18.90
2022-11-20T23:08:29.317Z,20.10
2022-11-20T23:12:37.959Z,21.70
2022-11-20T23:16:46.517Z,22.03
2022-11-20T23:20:55.090Z,17.20
2022-11-20T23:25:03.671Z,15.57
2022-11-20T23:29:12.889Z,15.00
2022-11-20T23:33:21.689Z,17.07
2022-11-20T23:37:30.316Z,21.00
2022-11-20T23:41:38.843Z,16.57
2022-11-20T23:45:52.742Z,17.57
2022-11-20T23:50:01.339Z,25.40
2022-11-20T23:54:10.161Z,20.50
2022-11-20T23:58:19.606Z,20.30
